sensor_id;sensor_type;location;lat;lon;timestamp;P1;durP1;ratioP1;P2;durP2;ratioP2
37445;SDS011;23307;51.136;14.942;2023-07-13T00:01:49;1.88;;;1.70;;
37445;SDS011;23307;51.136;14.942;2023-07-13T00:04:17;2.05;;;1.45;;
37445;SDS011;23307;51.136;14.942;2023-07-13T00:06:44;3.17;;;1.50;;
37445;SDS011;23307;51.136;14.942;2023-07-13T00:09:13;2.20;;;1.55;;
37445;SDS011;23307;51.136;14.942;2023-07-13T00:11:41;2.67;;;1.60;;
37445;SDS011;23307;51.136;14.942;2023-07-13T00:14:07;2.20;;;2.00;;
37445;SDS011;23307;51.136;14.942;2023-07-13T00:16:35;1.83;;;1.73;;
37445;SDS011;23307;51.136;14.942;2023-07-13T00:19:02;1.90;;;1.70;;
37445;SDS011;23307;51.136;14.942;2023-07-13T00:21:29;2.55;;;1.88;;
37445;SDS011;23307;51.136;14.942;2023-07-13T00:23:54;2.22;;;1.80;;
37445;SDS011;23307;51.136;14.942;2023-07-13T00:26:20;3.42;;;1.90;;
37445;SDS011;23307;51.136;14.942;2023-07-13T00:28:45;3.25;;;1.80;;
37445;SDS011;23307;51.136;14.942;2023-07-13T00:31:11;2.35;;;1.88;;
37445;SDS011;23307;51.136;14.942;2023-07-13T00:33:39;2.05;;;1.85;;
37445;SDS011;23307;51.136;14.942;2023-07-13T00:36:05;2.00;;;1.80;;
37445;SDS011;23307;51.136;14.942;2023-07-13T00:38:32;2.08;;;1.92;;
37445;SDS011;23307;51.136;14.942;2023-07-13T00:40:57;2.17;;;1.55;;
37445;SDS011;23307;51.136;14.942;2023-07-13T00:43:25;2.22;;;2.03;;
37445;SDS011;23307;51.136;14.942;2023-07-13T00:48:19;2.95;;;1.98;;
37445;SDS011;23307;51.136;14.942;2023-07-13T00:50:47;2.75;;;2.13;;
37445;SDS011;23307;51.136;14.942;2023-07-13T00:53:17;2.58;;;2.00;;
37445;SDS011;23307;51.136;14.942;2023-07-13T00:55:43;2.13;;;1.80;;
37445;SDS011;23307;51.136;14.942;2023-07-13T00:58:11;2.85;;;2.00;;
37445;SDS011;23307;51.136;14.942;2023-07-13T01:00:37;2.30;;;2.10;;
37445;SDS011;23307;51.136;14.942;2023-07-13T01:03:04;2.80;;;2.13;;
37445;SDS011;23307;51.136;14.942;2023-07-13T01:05:30;5.47;;;2.38;;
37445;SDS011;23307;51.136;14.942;2023-07-13T01:07:58;2.28;;;2.08;;
37445;SDS011;23307;51.136;14.942;2023-07-13T01:10:25;3.03;;;1.80;;
37445;SDS011;23307;51.136;14.942;2023-07-13T01:12:51;2.83;;;2.00;;
37445;SDS011;23307;51.136;14.942;2023-07-13T01:18:05;3.10;;;1.98;;
37445;SDS011;23307;51.136;14.942;2023-07-13T01:20:35;2.75;;;1.90;;
37445;SDS011;23307;51.136;14.942;2023-07-13T01:23:09;2.97;;;2.17;;
37445;SDS011;23307;51.136;14.942;2023-07-13T01:25:37;2.13;;;1.92;;
37445;SDS011;23307;51.136;14.942;2023-07-13T01:28:04;2.92;;;2.00;;
37445;SDS011;23307;51.136;14.942;2023-07-13T01:30:30;2.53;;;2.20;;
37445;SDS011;23307;51.136;14.942;2023-07-13T01:32:56;2.22;;;1.85;;
37445;SDS011;23307;51.136;14.942;2023-07-13T01:35:23;2.47;;;2.08;;
37445;SDS011;23307;51.136;14.942;2023-07-13T01:37:51;2.78;;;1.95;;
37445;SDS011;23307;51.136;14.942;2023-07-13T01:40:18;2.75;;;2.17;;
37445;SDS011;23307;51.136;14.942;2023-07-13T01:42:45;3.50;;;2.13;;
37445;SDS011;23307;51.136;14.942;2023-07-13T01:45:11;2.15;;;1.95;;
37445;SDS011;23307;51.136;14.942;2023-07-13T01:47:36;3.67;;;2.60;;
37445;SDS011;23307;51.136;14.942;2023-07-13T01:50:02;3.63;;;2.03;;
37445;SDS011;23307;51.136;14.942;2023-07-13T01:52:28;2.50;;;2.30;;
37445;SDS011;23307;51.136;14.942;2023-07-13T01:54:53;2.83;;;2.40;;
37445;SDS011;23307;51.136;14.942;2023-07-13T01:57:19;4.55;;;2.30;;
37445;SDS011;23307;51.136;14.942;2023-07-13T01:59:45;2.60;;;2.05;;
37445;SDS011;23307;51.136;14.942;2023-07-13T02:02:10;3.22;;;2.40;;
37445;SDS011;23307;51.136;14.942;2023-07-13T02:04:37;4.38;;;2.33;;
37445;SDS011;23307;51.136;14.942;2023-07-13T02:07:03;4.70;;;2.60;;
37445;SDS011;23307;51.136;14.942;2023-07-13T02:09:29;3.30;;;2.60;;
37445;SDS011;23307;51.136;14.942;2023-07-13T02:11:56;3.17;;;2.38;;
37445;SDS011;23307;51.136;14.942;2023-07-13T02:14:21;4.43;;;2.40;;
37445;SDS011;23307;51.136;14.942;2023-07-13T02:16:47;2.60;;;2.40;;
37445;SDS011;23307;51.136;14.942;2023-07-13T02:19:13;2.40;;;2.20;;
37445;SDS011;23307;51.136;14.942;2023-07-13T02:21:39;3.00;;;2.30;;
37445;SDS011;23307;51.136;14.942;2023-07-13T02:24:04;3.53;;;2.60;;
37445;SDS011;23307;51.136;14.942;2023-07-13T02:26:30;4.28;;;2.70;;
37445;SDS011;23307;51.136;14.942;2023-07-13T02:28:55;5.00;;;2.60;;
37445;SDS011;23307;51.136;14.942;2023-07-13T02:31:21;4.22;;;2.85;;
37445;SDS011;23307;51.136;14.942;2023-07-13T02:33:46;2.85;;;2.40;;
37445;SDS011;23307;51.136;14.942;2023-07-13T02:36:21;3.42;;;2.60;;
37445;SDS011;23307;51.136;14.942;2023-07-13T02:41:37;2.97;;;2.67;;
37445;SDS011;23307;51.136;14.942;2023-07-13T02:44:03;4.97;;;2.95;;
37445;SDS011;23307;51.136;14.942;2023-07-13T02:46:30;3.70;;;2.83;;
37445;SDS011;23307;51.136;14.942;2023-07-13T02:48:56;2.60;;;2.40;;
37445;SDS011;23307;51.136;14.942;2023-07-13T02:51:22;3.08;;;2.78;;
37445;SDS011;23307;51.136;14.942;2023-07-13T02:53:48;3.53;;;2.70;;
37445;SDS011;23307;51.136;14.942;2023-07-13T02:56:13;4.68;;;2.70;;
37445;SDS011;23307;51.136;14.942;2023-07-13T02:58:38;4.72;;;2.58;;
37445;SDS011;23307;51.136;14.942;2023-07-13T03:01:08;2.80;;;2.60;;
37445;SDS011;23307;51.136;14.942;2023-07-13T03:03:35;5.95;;;2.60;;
37445;SDS011;23307;51.136;14.942;2023-07-13T03:06:01;4.55;;;2.70;;
37445;SDS011;23307;51.136;14.942;2023-07-13T03:08:28;3.20;;;2.63;;
37445;SDS011;23307;51.136;14.942;2023-07-13T03:11:04;3.08;;;2.85;;
37445;SDS011;23307;51.136;14.942;2023-07-13T03:13:35;3.47;;;2.63;;
37445;SDS011;23307;51.136;14.942;2023-07-13T03:16:02;4.25;;;2.70;;
37445;SDS011;23307;51.136;14.942;2023-07-13T03:18:28;3.15;;;2.80;;
37445;SDS011;23307;51.136;14.942;2023-07-13T03:20:53;3.63;;;3.00;;
37445;SDS011;23307;51.136;14.942;2023-07-13T03:23:20;3.35;;;2.80;;
37445;SDS011;23307;51.136;14.942;2023-07-13T03:25:47;4.50;;;3.13;;
37445;SDS011;23307;51.136;14.942;2023-07-13T03:28:13;5.45;;;2.95;;
37445;SDS011;23307;51.136;14.942;2023-07-13T03:30:39;3.00;;;2.75;;
37445;SDS011;23307;51.136;14.942;2023-07-13T03:33:06;4.40;;;3.08;;
37445;SDS011;23307;51.136;14.942;2023-07-13T03:35:32;4.22;;;3.22;;
37445;SDS011;23307;51.136;14.942;2023-07-13T03:37:59;4.78;;;3.10;;
37445;SDS011;23307;51.136;14.942;2023-07-13T03:40:27;3.42;;;2.70;;
37445;SDS011;23307;51.136;14.942;2023-07-13T03:42:53;3.90;;;3.40;;
37445;SDS011;23307;51.136;14.942;2023-07-13T03:45:19;3.63;;;3.08;;
37445;SDS011;23307;51.136;14.942;2023-07-13T03:47:44;4.18;;;2.63;;
37445;SDS011;23307;51.136;14.942;2023-07-13T03:50:10;3.60;;;3.05;;
37445;SDS011;23307;51.136;14.942;2023-07-13T03:52:35;3.50;;;3.10;;
37445;SDS011;23307;51.136;14.942;2023-07-13T03:55:02;3.88;;;3.45;;
37445;SDS011;23307;51.136;14.942;2023-07-13T03:57:27;3.38;;;2.80;;
37445;SDS011;23307;51.136;14.942;2023-07-13T03:59:53;3.80;;;2.80;;
37445;SDS011;23307;51.136;14.942;2023-07-13T04:02:19;3.35;;;3.05;;
37445;SDS011;23307;51.136;14.942;2023-07-13T04:07:48;3.38;;;2.67;;
37445;SDS011;23307;51.136;14.942;2023-07-13T04:10:33;3.30;;;2.65;;
37445;SDS011;23307;51.136;14.942;2023-07-13T04:12:59;3.08;;;2.78;;
37445;SDS011;23307;51.136;14.942;2023-07-13T04:15:26;3.53;;;2.95;;
37445;SDS011;23307;51.136;14.942;2023-07-13T04:17:55;4.05;;;2.90;;
37445;SDS011;23307;51.136;14.942;2023-07-13T04:20:20;4.30;;;2.67;;
37445;SDS011;23307;51.136;14.942;2023-07-13T04:22:46;4.05;;;3.30;;
37445;SDS011;23307;51.136;14.942;2023-07-13T04:25:13;4.03;;;2.72;;
37445;SDS011;23307;51.136;14.942;2023-07-13T04:27:39;6.80;;;3.08;;
37445;SDS011;23307;51.136;14.942;2023-07-13T04:30:05;3.55;;;3.20;;
37445;SDS011;23307;51.136;14.942;2023-07-13T04:32:31;4.38;;;3.10;;
37445;SDS011;23307;51.136;14.942;2023-07-13T04:34:57;4.78;;;3.53;;
37445;SDS011;23307;51.136;14.942;2023-07-13T04:37:24;6.75;;;3.20;;
37445;SDS011;23307;51.136;14.942;2023-07-13T04:39:50;4.75;;;3.05;;
37445;SDS011;23307;51.136;14.942;2023-07-13T04:42:15;4.25;;;3.03;;
37445;SDS011;23307;51.136;14.942;2023-07-13T04:44:41;3.78;;;3.33;;
37445;SDS011;23307;51.136;14.942;2023-07-13T04:47:07;3.97;;;3.40;;
37445;SDS011;23307;51.136;14.942;2023-07-13T04:49:32;3.50;;;3.20;;
37445;SDS011;23307;51.136;14.942;2023-07-13T04:51:58;2.75;;;2.53;;
37445;SDS011;23307;51.136;14.942;2023-07-13T04:54:23;4.22;;;3.13;;
37445;SDS011;23307;51.136;14.942;2023-07-13T04:56:49;3.17;;;2.85;;
37445;SDS011;23307;51.136;14.942;2023-07-13T04:59:14;5.13;;;3.03;;
37445;SDS011;23307;51.136;14.942;2023-07-13T05:01:41;3.85;;;2.85;;
37445;SDS011;23307;51.136;14.942;2023-07-13T05:04:07;3.60;;;3.30;;
37445;SDS011;23307;51.136;14.942;2023-07-13T05:06:34;5.20;;;3.60;;
37445;SDS011;23307;51.136;14.942;2023-07-13T05:08:59;4.95;;;3.20;;
37445;SDS011;23307;51.136;14.942;2023-07-13T05:11:25;5.13;;;3.42;;
37445;SDS011;23307;51.136;14.942;2023-07-13T05:13:51;9.50;;;3.88;;
37445;SDS011;23307;51.136;14.942;2023-07-13T05:16:18;3.78;;;3.35;;
37445;SDS011;23307;51.136;14.942;2023-07-13T05:18:44;3.78;;;3.33;;
37445;SDS011;23307;51.136;14.942;2023-07-13T05:21:10;4.07;;;3.28;;
37445;SDS011;23307;51.136;14.942;2023-07-13T05:23:36;4.28;;;3.60;;
37445;SDS011;23307;51.136;14.942;2023-07-13T05:26:03;5.72;;;3.47;;
37445;SDS011;23307;51.136;14.942;2023-07-13T05:28:30;4.70;;;4.20;;
37445;SDS011;23307;51.136;14.942;2023-07-13T05:30:56;5.22;;;3.83;;
37445;SDS011;23307;51.136;14.942;2023-07-13T05:33:23;4.97;;;3.63;;
37445;SDS011;23307;51.136;14.942;2023-07-13T05:35:49;5.43;;;3.60;;
37445;SDS011;23307;51.136;14.942;2023-07-13T05:38:16;4.43;;;3.47;;
37445;SDS011;23307;51.136;14.942;2023-07-13T05:40:42;7.50;;;2.92;;
37445;SDS011;23307;51.136;14.942;2023-07-13T05:43:08;4.32;;;2.78;;
37445;SDS011;23307;51.136;14.942;2023-07-13T05:45:34;7.20;;;3.13;;
37445;SDS011;23307;51.136;14.942;2023-07-13T05:48:00;3.70;;;3.20;;
37445;SDS011;23307;51.136;14.942;2023-07-13T05:50:26;3.28;;;2.80;;
37445;SDS011;23307;51.136;14.942;2023-07-13T05:52:52;3.50;;;2.60;;
37445;SDS011;23307;51.136;14.942;2023-07-13T05:55:18;3.15;;;2.83;;
37445;SDS011;23307;51.136;14.942;2023-07-13T05:57:44;6.90;;;2.95;;
37445;SDS011;23307;51.136;14.942;2023-07-13T06:00:10;3.88;;;2.53;;
37445;SDS011;23307;51.136;14.942;2023-07-13T06:02:36;3.22;;;2.80;;
37445;SDS011;23307;51.136;14.942;2023-07-13T06:05:02;4.47;;;3.20;;
37445;SDS011;23307;51.136;14.942;2023-07-13T06:07:28;3.50;;;2.85;;
37445;SDS011;23307;51.136;14.942;2023-07-13T06:09:54;3.70;;;3.15;;
37445;SDS011;23307;51.136;14.942;2023-07-13T06:12:20;3.50;;;2.92;;
37445;SDS011;23307;51.136;14.942;2023-07-13T06:14:45;5.30;;;3.10;;
37445;SDS011;23307;51.136;14.942;2023-07-13T06:17:12;5.05;;;2.90;;
37445;SDS011;23307;51.136;14.942;2023-07-13T06:19:38;3.42;;;3.00;;
37445;SDS011;23307;51.136;14.942;2023-07-13T06:22:04;3.05;;;2.78;;
37445;SDS011;23307;51.136;14.942;2023-07-13T06:24:30;3.15;;;2.20;;
37445;SDS011;23307;51.136;14.942;2023-07-13T06:26:55;3.05;;;2.60;;
37445;SDS011;23307;51.136;14.942;2023-07-13T06:29:21;3.25;;;2.60;;
37445;SDS011;23307;51.136;14.942;2023-07-13T06:31:47;3.88;;;2.70;;
37445;SDS011;23307;51.136;14.942;2023-07-13T06:34:13;4.18;;;2.75;;
37445;SDS011;23307;51.136;14.942;2023-07-13T06:36:39;2.65;;;2.45;;
37445;SDS011;23307;51.136;14.942;2023-07-13T06:39:06;3.10;;;2.80;;
37445;SDS011;23307;51.136;14.942;2023-07-13T06:41:32;2.88;;;2.53;;
37445;SDS011;23307;51.136;14.942;2023-07-13T06:43:58;4.05;;;2.72;;
37445;SDS011;23307;51.136;14.942;2023-07-13T06:46:25;2.67;;;2.45;;
37445;SDS011;23307;51.136;14.942;2023-07-13T06:48:51;2.88;;;2.58;;
37445;SDS011;23307;51.136;14.942;2023-07-13T06:51:16;2.83;;;2.35;;
37445;SDS011;23307;51.136;14.942;2023-07-13T06:53:42;2.50;;;2.30;;
37445;SDS011;23307;51.136;14.942;2023-07-13T06:56:09;2.60;;;2.38;;
37445;SDS011;23307;51.136;14.942;2023-07-13T06:58:35;3.97;;;2.40;;
37445;SDS011;23307;51.136;14.942;2023-07-13T07:01:02;4.78;;;2.42;;
37445;SDS011;23307;51.136;14.942;2023-07-13T07:03:29;4.72;;;2.60;;
37445;SDS011;23307;51.136;14.942;2023-07-13T07:05:59;3.60;;;2.60;;
37445;SDS011;23307;51.136;14.942;2023-07-13T07:08:36;4.15;;;2.70;;
37445;SDS011;23307;51.136;14.942;2023-07-13T07:11:03;2.40;;;2.20;;
37445;SDS011;23307;51.136;14.942;2023-07-13T07:13:28;3.00;;;2.40;;
37445;SDS011;23307;51.136;14.942;2023-07-13T07:15:55;3.05;;;2.70;;
37445;SDS011;23307;51.136;14.942;2023-07-13T07:18:20;3.78;;;2.40;;
37445;SDS011;23307;51.136;14.942;2023-07-13T07:20:46;3.53;;;2.35;;
37445;SDS011;23307;51.136;14.942;2023-07-13T07:23:11;2.72;;;2.28;;
37445;SDS011;23307;51.136;14.942;2023-07-13T07:25:37;2.97;;;2.47;;
37445;SDS011;23307;51.136;14.942;2023-07-13T07:28:07;2.50;;;2.30;;
37445;SDS011;23307;51.136;14.942;2023-07-13T07:30:33;2.40;;;2.20;;
37445;SDS011;23307;51.136;14.942;2023-07-13T07:32:58;2.42;;;2.22;;
37445;SDS011;23307;51.136;14.942;2023-07-13T07:35:24;2.90;;;2.22;;
37445;SDS011;23307;51.136;14.942;2023-07-13T07:37:50;3.15;;;2.30;;
37445;SDS011;23307;51.136;14.942;2023-07-13T07:40:15;2.20;;;2.00;;
37445;SDS011;23307;51.136;14.942;2023-07-13T07:42:41;2.80;;;2.17;;
37445;SDS011;23307;51.136;14.942;2023-07-13T07:45:07;2.58;;;2.15;;
37445;SDS011;23307;51.136;14.942;2023-07-13T07:47:33;2.63;;;2.08;;
37445;SDS011;23307;51.136;14.942;2023-07-13T07:49:58;2.17;;;1.98;;
37445;SDS011;23307;51.136;14.942;2023-07-13T07:52:24;2.47;;;2.10;;
37445;SDS011;23307;51.136;14.942;2023-07-13T07:54:51;2.47;;;1.98;;
37445;SDS011;23307;51.136;14.942;2023-07-13T07:57:16;3.28;;;2.50;;
37445;SDS011;23307;51.136;14.942;2023-07-13T07:59:42;2.35;;;1.90;;
37445;SDS011;23307;51.136;14.942;2023-07-13T08:02:08;2.63;;;2.10;;
37445;SDS011;23307;51.136;14.942;2023-07-13T08:04:38;3.35;;;2.10;;
37445;SDS011;23307;51.136;14.942;2023-07-13T08:07:04;2.10;;;1.90;;
37445;SDS011;23307;51.136;14.942;2023-07-13T08:09:31;3.00;;;2.28;;
37445;SDS011;23307;51.136;14.942;2023-07-13T08:14:58;2.80;;;1.80;;
37445;SDS011;23307;51.136;14.942;2023-07-13T08:17:26;3.00;;;2.15;;
37445;SDS011;23307;51.136;14.942;2023-07-13T08:19:52;4.15;;;2.80;;
37445;SDS011;23307;51.136;14.942;2023-07-13T08:22:17;4.10;;;2.45;;
37445;SDS011;23307;51.136;14.942;2023-07-13T08:24:43;3.15;;;2.50;;
37445;SDS011;23307;51.136;14.942;2023-07-13T08:27:10;3.08;;;2.60;;
37445;SDS011;23307;51.136;14.942;2023-07-13T08:29:37;2.95;;;2.65;;
37445;SDS011;23307;51.136;14.942;2023-07-13T08:32:04;3.72;;;2.75;;
37445;SDS011;23307;51.136;14.942;2023-07-13T08:34:34;3.25;;;2.40;;
37445;SDS011;23307;51.136;14.942;2023-07-13T08:37:01;3.05;;;2.47;;
37445;SDS011;23307;51.136;14.942;2023-07-13T08:39:29;3.08;;;2.53;;
37445;SDS011;23307;51.136;14.942;2023-07-13T08:41:58;3.65;;;2.60;;
37445;SDS011;23307;51.136;14.942;2023-07-13T08:47:16;2.40;;;2.20;;
37445;SDS011;23307;51.136;14.942;2023-07-13T08:49:43;4.60;;;2.28;;
37445;SDS011;23307;51.136;14.942;2023-07-13T08:52:12;4.72;;;2.22;;
37445;SDS011;23307;51.136;14.942;2023-07-13T08:54:51;5.43;;;2.25;;
37445;SDS011;23307;51.136;14.942;2023-07-13T08:57:21;3.53;;;2.40;;
37445;SDS011;23307;51.136;14.942;2023-07-13T08:59:55;2.42;;;2.20;;
37445;SDS011;23307;51.136;14.942;2023-07-13T09:02:28;2.58;;;2.30;;
37445;SDS011;23307;51.136;14.942;2023-07-13T09:05:11;4.07;;;2.30;;
37445;SDS011;23307;51.136;14.942;2023-07-13T09:07:45;3.40;;;2.13;;
37445;SDS011;23307;51.136;14.942;2023-07-13T09:13:50;3.55;;;1.80;;
37445;SDS011;23307;51.136;14.942;2023-07-13T09:16:27;3.38;;;2.00;;
37445;SDS011;23307;51.136;14.942;2023-07-13T09:18:54;3.10;;;2.30;;
37445;SDS011;23307;51.136;14.942;2023-07-13T09:21:34;5.25;;;2.45;;
37445;SDS011;23307;51.136;14.942;2023-07-13T09:25:06;4.68;;;2.03;;
37445;SDS011;23307;51.136;14.942;2023-07-13T09:27:19;2.58;;;2.17;;
37445;SDS011;23307;51.136;14.942;2023-07-13T09:30:36;4.35;;;2.30;;
37445;SDS011;23307;51.136;14.942;2023-07-13T09:32:35;2.47;;;2.03;;
37445;SDS011;23307;51.136;14.942;2023-07-13T09:35:05;3.25;;;1.98;;
37445;SDS011;23307;51.136;14.942;2023-07-13T09:37:36;2.22;;;1.90;;
37445;SDS011;23307;51.136;14.942;2023-07-13T09:40:04;2.22;;;1.75;;
37445;SDS011;23307;51.136;14.942;2023-07-13T09:42:35;2.90;;;2.00;;
37445;SDS011;23307;51.136;14.942;2023-07-13T09:45:01;2.42;;;1.75;;
37445;SDS011;23307;51.136;14.942;2023-07-13T09:47:28;2.92;;;1.92;;
37445;SDS011;23307;51.136;14.942;2023-07-13T09:50:00;2.85;;;1.90;;
37445;SDS011;23307;51.136;14.942;2023-07-13T09:55:30;4.72;;;2.50;;
37445;SDS011;23307;51.136;14.942;2023-07-13T10:01:02;3.35;;;2.03;;
37445;SDS011;23307;51.136;14.942;2023-07-13T10:03:34;4.80;;;2.30;;
37445;SDS011;23307;51.136;14.942;2023-07-13T10:06:11;3.72;;;2.42;;
37445;SDS011;23307;51.136;14.942;2023-07-13T10:08:43;3.85;;;2.17;;
37445;SDS011;23307;51.136;14.942;2023-07-13T10:11:14;4.85;;;2.00;;
37445;SDS011;23307;51.136;14.942;2023-07-13T10:13:44;2.78;;;2.05;;
37445;SDS011;23307;51.136;14.942;2023-07-13T10:16:24;3.55;;;2.28;;
37445;SDS011;23307;51.136;14.942;2023-07-13T10:18:56;2.45;;;2.00;;
37445;SDS011;23307;51.136;14.942;2023-07-13T10:21:27;3.92;;;2.05;;
37445;SDS011;23307;51.136;14.942;2023-07-13T10:24:04;3.53;;;1.90;;
37445;SDS011;23307;51.136;14.942;2023-07-13T10:26:39;2.03;;;1.60;;
37445;SDS011;23307;51.136;14.942;2023-07-13T10:29:11;5.20;;;2.10;;
37445;SDS011;23307;51.136;14.942;2023-07-13T10:31:40;4.07;;;1.95;;
37445;SDS011;23307;51.136;14.942;2023-07-13T10:34:10;2.42;;;1.60;;
37445;SDS011;23307;51.136;14.942;2023-07-13T10:36:40;2.30;;;1.60;;
37445;SDS011;23307;51.136;14.942;2023-07-13T10:39:13;3.20;;;1.70;;
37445;SDS011;23307;51.136;14.942;2023-07-13T10:41:40;2.17;;;1.42;;
37445;SDS011;23307;51.136;14.942;2023-07-13T10:44:18;2.75;;;1.70;;
37445;SDS011;23307;51.136;14.942;2023-07-13T10:46:50;3.90;;;1.65;;
37445;SDS011;23307;51.136;14.942;2023-07-13T10:49:22;2.80;;;1.10;;
37445;SDS011;23307;51.136;14.942;2023-07-13T10:51:49;2.15;;;1.17;;
37445;SDS011;23307;51.136;14.942;2023-07-13T10:54:18;2.40;;;1.10;;
37445;SDS011;23307;51.136;14.942;2023-07-13T10:56:44;2.70;;;1.20;;
37445;SDS011;23307;51.136;14.942;2023-07-13T10:59:12;2.88;;;1.20;;
37445;SDS011;23307;51.136;14.942;2023-07-13T11:01:53;3.30;;;1.42;;
37445;SDS011;23307;51.136;14.942;2023-07-13T11:04:21;2.80;;;1.30;;
37445;SDS011;23307;51.136;14.942;2023-07-13T11:06:52;2.90;;;1.52;;
37445;SDS011;23307;51.136;14.942;2023-07-13T11:09:35;2.60;;;1.35;;
37445;SDS011;23307;51.136;14.942;2023-07-13T11:12:10;2.85;;;1.65;;
37445;SDS011;23307;51.136;14.942;2023-07-13T11:27:52;2.50;;;1.80;;
37445;SDS011;23307;51.136;14.942;2023-07-13T11:30:35;2.88;;;1.50;;
37445;SDS011;23307;51.136;14.942;2023-07-13T11:35:37;3.72;;;1.70;;
37445;SDS011;23307;51.136;14.942;2023-07-13T11:38:18;3.35;;;1.50;;
37445;SDS011;23307;51.136;14.942;2023-07-13T11:40:47;3.22;;;1.50;;
37445;SDS011;23307;51.136;14.942;2023-07-13T11:43:17;3.28;;;1.70;;
37445;SDS011;23307;51.136;14.942;2023-07-13T11:45:43;4.93;;;1.90;;
37445;SDS011;23307;51.136;14.942;2023-07-13T11:48:17;5.15;;;1.90;;
37445;SDS011;23307;51.136;14.942;2023-07-13T11:50:49;3.10;;;1.58;;
37445;SDS011;23307;51.136;14.942;2023-07-13T11:53:20;3.42;;;1.77;;
37445;SDS011;23307;51.136;14.942;2023-07-13T11:55:46;2.85;;;1.60;;
37445;SDS011;23307;51.136;14.942;2023-07-13T11:58:14;2.42;;;1.60;;
37445;SDS011;23307;51.136;14.942;2023-07-13T12:00:46;1.60;;;1.40;;
37445;SDS011;23307;51.136;14.942;2023-07-13T12:03:13;2.95;;;1.70;;
37445;SDS011;23307;51.136;14.942;2023-07-13T12:05:54;2.55;;;1.58;;
37445;SDS011;23307;51.136;14.942;2023-07-13T12:08:22;2.03;;;1.27;;
37445;SDS011;23307;51.136;14.942;2023-07-13T12:10:47;2.00;;;1.75;;
37445;SDS011;23307;51.136;14.942;2023-07-13T12:13:20;2.35;;;1.50;;
37445;SDS011;23307;51.136;14.942;2023-07-13T12:15:47;2.13;;;1.35;;
37445;SDS011;23307;51.136;14.942;2023-07-13T12:18:14;2.35;;;1.38;;
37445;SDS011;23307;51.136;14.942;2023-07-13T12:20:44;2.60;;;1.50;;
37445;SDS011;23307;51.136;14.942;2023-07-13T12:25:55;3.00;;;1.40;;
37445;SDS011;23307;51.136;14.942;2023-07-13T12:28:36;1.77;;;1.50;;
37445;SDS011;23307;51.136;14.942;2023-07-13T12:31:05;2.78;;;1.35;;
37445;SDS011;23307;51.136;14.942;2023-07-13T12:33:33;3.50;;;1.20;;
37445;SDS011;23307;51.136;14.942;2023-07-13T12:36:03;1.45;;;1.00;;
37445;SDS011;23307;51.136;14.942;2023-07-13T12:38:31;2.45;;;1.33;;
37445;SDS011;23307;51.136;14.942;2023-07-13T12:40:58;2.05;;;1.23;;
37445;SDS011;23307;51.136;14.942;2023-07-13T12:43:26;2.20;;;1.13;;
37445;SDS011;23307;51.136;14.942;2023-07-13T12:46:02;1.67;;;1.10;;
37445;SDS011;23307;51.136;14.942;2023-07-13T12:48:30;4.97;;;1.30;;
37445;SDS011;23307;51.136;14.942;2023-07-13T12:51:04;1.75;;;1.10;;
37445;SDS011;23307;51.136;14.942;2023-07-13T12:53:39;1.85;;;0.90;;
37445;SDS011;23307;51.136;14.942;2023-07-13T12:56:21;2.03;;;0.93;;
37445;SDS011;23307;51.136;14.942;2023-07-13T12:58:49;2.90;;;1.48;;
37445;SDS011;23307;51.136;14.942;2023-07-13T13:01:21;1.88;;;1.17;;
37445;SDS011;23307;51.136;14.942;2023-07-13T13:03:49;2.88;;;1.48;;
37445;SDS011;23307;51.136;14.942;2023-07-13T13:08:47;2.78;;;1.50;;
37445;SDS011;23307;51.136;14.942;2023-07-13T13:11:14;2.33;;;1.10;;
37445;SDS011;23307;51.136;14.942;2023-07-13T13:13:44;2.33;;;1.23;;
37445;SDS011;23307;51.136;14.942;2023-07-13T13:16:16;2.25;;;1.30;;
37445;SDS011;23307;51.136;14.942;2023-07-13T13:18:45;3.85;;;1.67;;
37445;SDS011;23307;51.136;14.942;2023-07-13T13:21:11;3.30;;;1.33;;
37445;SDS011;23307;51.136;14.942;2023-07-13T13:23:37;1.73;;;1.20;;
37445;SDS011;23307;51.136;14.942;2023-07-13T13:26:05;2.10;;;1.30;;
37445;SDS011;23307;51.136;14.942;2023-07-13T13:28:34;2.83;;;1.25;;
37445;SDS011;23307;51.136;14.942;2023-07-13T13:30:59;2.58;;;1.20;;
37445;SDS011;23307;51.136;14.942;2023-07-13T13:33:25;2.92;;;1.35;;
37445;SDS011;23307;51.136;14.942;2023-07-13T13:35:50;3.33;;;1.00;;
37445;SDS011;23307;51.136;14.942;2023-07-13T13:38:18;2.20;;;1.35;;
37445;SDS011;23307;51.136;14.942;2023-07-13T13:40:48;2.85;;;1.27;;
37445;SDS011;23307;51.136;14.942;2023-07-13T13:43:18;3.03;;;1.30;;
37445;SDS011;23307;51.136;14.942;2023-07-13T13:45:50;3.00;;;1.30;;
37445;SDS011;23307;51.136;14.942;2023-07-13T13:48:17;2.92;;;1.35;;
37445;SDS011;23307;51.136;14.942;2023-07-13T13:50:45;3.85;;;1.63;;
37445;SDS011;23307;51.136;14.942;2023-07-13T13:53:13;2.53;;;1.42;;
37445;SDS011;23307;51.136;14.942;2023-07-13T13:55:39;3.47;;;1.52;;
37445;SDS011;23307;51.136;14.942;2023-07-13T13:58:06;2.65;;;1.85;;
37445;SDS011;23307;51.136;14.942;2023-07-13T14:00:33;2.83;;;1.50;;
37445;SDS011;23307;51.136;14.942;2023-07-13T14:02:59;3.03;;;1.50;;
37445;SDS011;23307;51.136;14.942;2023-07-13T14:05:25;3.35;;;1.33;;
37445;SDS011;23307;51.136;14.942;2023-07-13T14:07:51;3.63;;;1.40;;
37445;SDS011;23307;51.136;14.942;2023-07-13T14:10:18;4.15;;;1.40;;
37445;SDS011;23307;51.136;14.942;2023-07-13T14:12:47;3.20;;;1.25;;
37445;SDS011;23307;51.136;14.942;2023-07-13T14:15:20;2.25;;;1.30;;
37445;SDS011;23307;51.136;14.942;2023-07-13T14:17:47;2.40;;;1.13;;
37445;SDS011;23307;51.136;14.942;2023-07-13T14:20:17;2.78;;;1.58;;
37445;SDS011;23307;51.136;14.942;2023-07-13T14:22:45;2.78;;;1.20;;
37445;SDS011;23307;51.136;14.942;2023-07-13T14:25:12;1.73;;;1.20;;
37445;SDS011;23307;51.136;14.942;2023-07-13T14:27:39;1.60;;;1.15;;
37445;SDS011;23307;51.136;14.942;2023-07-13T14:30:15;2.83;;;1.42;;
37445;SDS011;23307;51.136;14.942;2023-07-13T14:32:46;3.92;;;1.15;;
37445;SDS011;23307;51.136;14.942;2023-07-13T14:35:13;2.85;;;1.40;;
37445;SDS011;23307;51.136;14.942;2023-07-13T14:37:41;3.78;;;1.13;;
37445;SDS011;23307;51.136;14.942;2023-07-13T14:40:14;2.65;;;1.02;;
37445;SDS011;23307;51.136;14.942;2023-07-13T14:42:41;5.43;;;1.40;;
37445;SDS011;23307;51.136;14.942;2023-07-13T14:45:14;3.03;;;1.10;;
37445;SDS011;23307;51.136;14.942;2023-07-13T14:47:44;2.55;;;1.08;;
37445;SDS011;23307;51.136;14.942;2023-07-13T14:50:17;2.70;;;1.13;;
37445;SDS011;23307;51.136;14.942;2023-07-13T14:52:49;1.67;;;1.20;;
37445;SDS011;23307;51.136;14.942;2023-07-13T14:55:16;1.30;;;1.10;;
37445;SDS011;23307;51.136;14.942;2023-07-13T14:57:44;1.15;;;0.98;;
37445;SDS011;23307;51.136;14.942;2023-07-13T15:00:14;1.27;;;1.13;;
37445;SDS011;23307;51.136;14.942;2023-07-13T15:02:43;3.88;;;1.40;;
37445;SDS011;23307;51.136;14.942;2023-07-13T15:05:22;2.08;;;1.20;;
37445;SDS011;23307;51.136;14.942;2023-07-13T15:07:56;2.08;;;1.10;;
37445;SDS011;23307;51.136;14.942;2023-07-13T15:10:25;5.57;;;1.45;;
37445;SDS011;23307;51.136;14.942;2023-07-13T15:12:57;3.90;;;1.20;;
37445;SDS011;23307;51.136;14.942;2023-07-13T15:15:26;2.88;;;1.30;;
37445;SDS011;23307;51.136;14.942;2023-07-13T15:17:58;2.03;;;1.10;;
37445;SDS011;23307;51.136;14.942;2023-07-13T15:20:28;3.53;;;1.23;;
37445;SDS011;23307;51.136;14.942;2023-07-13T15:23:01;2.80;;;1.27;;
37445;SDS011;23307;51.136;14.942;2023-07-13T15:25:30;1.80;;;1.33;;
37445;SDS011;23307;51.136;14.942;2023-07-13T15:27:58;2.90;;;1.00;;